Time;durP1;ratioP1;P1;durP2;ratioP2;P2;SDS_P1;SDS_P2;PMS_P1;PMS_P2;Temp;Humidity;BMP_temperature;BMP_pressure;BME280_temperature;BME280_humidity;BME280_pressure;Samples;Min_cycle;Max_cycle;Signal;HPM_P1;HPM_P2
2021/01/05 00:01:59;;;;;;;18.92;13.30;;;2.00;99.90;;;;;;5003063;28;20023;-72
2021/01/05 00:04:32;;;;;;;21.85;13.45;;;2.00;99.90;;;;;;4969738;28;20030;-72
2021/01/05 00:07:02;;;;;;;19.48;13.38;;;2.00;99.90;;;;;;4983347;28;20014;-72
2021/01/05 00:09:28;;;;;;;19.40;13.02;;;1.90;1.00;;;;;;4992178;28;20025;-72
2021/01/05 00:12:01;;;;;;;20.67;15.43;;;2.00;1.00;;;;;;5007771;28;20030;-72
2021/01/05 00:14:28;;;;;;;19.58;14.02;;;1.90;1.00;;;;;;5009670;28;20041;-72
2021/01/05 00:16:54;;;;;;;22.88;13.93;;;1.80;1.00;;;;;;5008387;28;20041;-73
2021/01/05 00:19:21;;;;;;;18.25;13.15;;;1.90;1.00;;;;;;5005116;28;20042;-71
2021/01/05 00:21:48;;;;;;;21.80;15.40;;;1.90;1.00;;;;;;5005670;28;20042;-71
2021/01/05 00:24:13;;;;;;;23.65;14.10;;;1.90;1.00;;;;;;5008221;28;20031;-71
2021/01/05 00:26:39;;;;;;;23.00;13.27;;;1.90;1.00;;;;;;5005958;28;20504;-72
2021/01/05 00:29:05;;;;;;;20.73;13.77;;;1.90;1.00;;;;;;5007931;28;20018;-72
2021/01/05 00:31:31;;;;;;;22.63;14.60;;;1.90;1.00;;;;;;5009842;28;20094;-72
2021/01/05 00:33:57;;;;;;;23.50;15.57;;;1.90;1.00;;;;;;5008330;28;20034;-71
2021/01/05 00:36:23;;;;;;;23.77;15.00;;;1.90;1.00;;;;;;4999163;28;20042;-72
2021/01/05 00:38:49;;;;;;;22.10;15.55;;;1.90;1.00;;;;;;5008230;28;20085;-72
2021/01/05 00:41:14;;;;;;;22.52;15.98;;;1.80;1.00;;;;;;5007156;28;20065;-71
2021/01/05 00:43:40;;;;;;;25.38;16.15;;;1.90;1.00;;;;;;5006997;28;20034;-72
2021/01/05 00:46:09;;;;;;;20.02;15.02;;;2.00;1.00;;;;;;5007611;28;20038;-71
2021/01/05 00:48:35;;;;;;;24.40;14.63;;;1.90;1.00;;;;;;5007747;28;20026;-71
2021/01/05 00:51:01;;;;;;;21.45;15.63;;;1.90;1.00;;;;;;5008057;28;20106;-72
2021/01/05 00:53:28;;;;;;;20.23;14.25;;;2.00;1.00;;;;;;5007003;28;20054;-71
2021/01/05 00:55:54;;;;;;;21.58;15.00;;;2.00;1.00;;;;;;5006018;28;20026;-71
2021/01/05 00:58:23;;;;;;;21.15;14.20;;;2.00;1.00;;;;;;5007820;28;20149;-72
2021/01/05 01:00:50;;;;;;;20.48;13.43;;;2.00;1.00;;;;;;4977074;28;20022;-71
2021/01/05 01:03:17;;;;;;;20.30;14.80;;;2.00;1.00;;;;;;5004261;28;20034;-72
2021/01/05 01:05:43;;;;;;;20.38;14.40;;;1.90;1.00;;;;;;5006307;28;20026;-71
2021/01/05 01:08:09;;;;;;;23.50;15.45;;;1.90;1.00;;;;;;5005286;28;20033;-71
2021/01/05 01:10:34;;;;;;;21.10;14.13;;;2.00;1.00;;;;;;5004416;28;20025;-72
2021/01/05 01:13:00;;;;;;;24.27;16.33;;;2.00;1.00;;;;;;4999885;28;20034;-71
2021/01/05 01:15:25;;;;;;;21.25;13.93;;;1.90;1.00;;;;;;4997382;28;20034;-72
2021/01/05 01:17:51;;;;;;;19.13;14.10;;;2.00;1.00;;;;;;4995943;28;20034;-71
2021/01/05 01:20:16;;;;;;;18.58;13.90;;;2.00;1.00;;;;;;4977205;28;20042;-72
2021/01/05 01:22:42;;;;;;;23.45;14.77;;;1.90;1.00;;;;;;4994619;28;20517;-71
2021/01/05 01:25:08;;;;;;;21.17;15.20;;;1.90;1.00;;;;;;4994515;28;20030;-72
2021/01/05 01:27:34;;;;;;;22.80;15.30;;;2.00;1.00;;;;;;4994823;28;20023;-72
2021/01/05 01:29:59;;;;;;;24.52;16.42;;;2.10;1.00;;;;;;4994106;28;20028;-73
2021/01/05 01:32:25;;;;;;;20.95;14.68;;;2.10;1.00;;;;;;4995064;28;20076;-72
2021/01/05 01:34:50;;;;;;;21.92;14.80;;;2.10;1.00;;;;;;4976415;28;20026;-72
2021/01/05 01:37:18;;;;;;;19.08;13.90;;;2.20;1.00;;;;;;4993981;28;20553;-73
2021/01/05 01:39:45;;;;;;;24.60;15.13;;;2.10;1.00;;;;;;4994873;28;20033;-71
2021/01/05 01:42:14;;;;;;;22.10;14.52;;;2.10;1.00;;;;;;4977402;28;20030;-71
2021/01/05 01:44:42;;;;;;;22.40;15.43;;;2.00;1.00;;;;;;4994193;28;20038;-71
2021/01/05 01:47:12;;;;;;;25.27;15.45;;;2.00;1.00;;;;;;4961795;28;20039;-72
2021/01/05 01:49:38;;;;;;;20.80;14.20;;;1.80;1.00;;;;;;4994510;28;20034;-74
2021/01/05 01:52:08;;;;;;;23.40;15.50;;;2.00;1.00;;;;;;4993920;28;20279;-72
2021/01/05 01:55:03;;;;;;;23.42;14.88;;;1.80;1.00;;;;;;4976552;28;20114;-72
2021/01/05 01:57:41;;;;;;;21.92;15.90;;;1.70;1.00;;;;;;4993559;28;20422;-71
2021/01/05 02:00:21;;;;;;;22.13;15.05;;;1.80;1.00;;;;;;4945985;28;20062;-71
2021/01/05 02:02:59;;;;;;;23.17;15.65;;;1.90;1.00;;;;;;4987925;28;20113;-72
2021/01/05 02:05:35;;;;;;;21.25;14.80;;;1.80;1.00;;;;;;4975836;28;20044;-71
2021/01/05 02:08:17;;;;;;;25.92;15.57;;;1.70;1.00;;;;;;4975879;28;20026;-72
2021/01/05 02:10:52;;;;;;;24.75;14.60;;;1.70;1.00;;;;;;4993577;28;20105;-72
2021/01/05 02:13:33;;;;;;;28.08;17.23;;;1.70;6.80;;;;;;4993252;28;20023;-71
2021/01/05 02:16:14;;;;;;;24.60;16.15;;;1.60;5.20;;;;;;4992613;28;20030;-71
2021/01/05 02:18:55;;;;;;;;;;;1.60;13.80;;;;;;4994624;28;20034;-74
2021/01/05 02:21:35;;;;;;;22.85;15.73;;;1.70;1.00;;;;;;5005439;28;19980;-72
2021/01/05 02:24:26;;;;;;;23.50;14.70;;;1.60;6.80;;;;;;5006598;28;20092;-71
2021/01/05 02:27:04;;;;;;;24.95;16.33;;;1.60;12.00;;;;;;5005936;28;20558;-71
2021/01/05 02:29:37;;;;;;;22.63;14.98;;;1.60;22.40;;;;;;5000458;28;20030;-72
2021/01/05 02:32:12;;;;;;;27.40;18.20;;;1.60;18.80;;;;;;4994056;28;20085;-71
2021/01/05 02:34:47;;;;;;;27.52;17.23;;;1.60;35.90;;;;;;4986785;28;20028;-73
2021/01/05 02:37:21;;;;;;;26.02;16.52;;;1.80;7.10;;;;;;4993002;28;20071;-72
2021/01/05 02:40:06;;;;;;;27.10;17.02;;;2.00;1.00;;;;;;4972338;28;20637;-71
2021/01/05 02:42:55;;;;;;;24.05;16.25;;;2.20;1.00;;;;;;4989433;28;20113;-72
2021/01/05 02:45:29;;;;;;;26.77;17.02;;;2.20;1.00;;;;;;4992500;28;20026;-71
2021/01/05 02:47:54;;;;;;;31.05;19.08;;;2.10;1.00;;;;;;5007693;28;20045;-73
2021/01/05 02:50:35;;;;;;;24.35;16.42;;;2.00;24.20;;;;;;5016128;28;20030;-73
2021/01/05 02:53:32;;;;;;;30.45;17.50;;;2.00;1.00;;;;;;5013571;28;20011;-73
2021/01/05 02:56:09;;;;;;;25.67;16.50;;;1.80;3.90;;;;;;5016013;28;20058;-73
2021/01/05 02:58:55;;;;;;;28.58;18.02;;;2.10;1.00;;;;;;4982770;28;20066;-72
2021/01/05 03:01:29;;;;;;;31.55;18.02;;;1.90;1.00;;;;;;4995514;28;20026;-72
2021/01/05 03:03:56;;;;;;;30.23;17.75;;;1.80;20.30;;;;;;4994455;28;20022;-73
2021/01/05 03:06:41;;;;;;;28.65;19.15;;;1.80;12.90;;;;;;4988811;28;20053;-72
2021/01/05 03:09:23;;;;;;;30.08;19.98;;;1.80;7.90;;;;;;4994726;28;20021;-73
2021/01/05 03:12:19;;;;;;;26.35;18.17;;;2.00;3.10;;;;;;4993803;28;20046;-72
2021/01/05 03:15:25;;;;;;;32.08;19.42;;;2.20;1.00;;;;;;4992137;28;20042;-72
2021/01/05 03:18:16;;;;;;;34.05;18.60;;;2.10;1.00;;;;;;4993545;28;20390;-72
2021/01/05 03:20:47;;;;;;;31.45;18.13;;;2.30;1.00;;;;;;4979659;28;20038;-72
2021/01/05 03:23:14;;;;;;;31.05;17.67;;;2.30;1.00;;;;;;4993502;28;20030;-73
2021/01/05 03:25:45;;;;;;;30.00;18.95;;;2.20;1.00;;;;;;4976083;28;20113;-71
2021/01/05 03:28:16;;;;;;;32.83;18.90;;;2.10;1.00;;;;;;4993596;28;20023;-71
2021/01/05 03:30:50;;;;;;;29.95;19.10;;;2.10;1.00;;;;;;4993529;28;20541;-73
2021/01/05 03:33:16;;;;;;;30.60;18.85;;;2.20;1.00;;;;;;4976255;28;20124;-73
2021/01/05 03:35:42;;;;;;;27.98;17.42;;;2.20;1.00;;;;;;4993833;28;20050;-73
2021/01/05 03:38:07;;;;;;;27.77;17.90;;;2.30;1.00;;;;;;4993684;28;20050;-72
2021/01/05 03:40:36;;;;;;;27.38;17.65;;;2.20;1.00;;;;;;4994010;28;20034;-72
2021/01/05 03:43:02;;;;;;;31.25;17.13;;;2.00;1.00;;;;;;4976443;28;20023;-72
2021/01/05 03:45:30;;;;;;;28.48;18.23;;;1.80;28.20;;;;;;4993284;28;20033;-73
2021/01/05 03:47:57;;;;;;;31.95;19.70;;;1.80;38.60;;;;;;4995587;28;20022;-73
2021/01/05 03:50:23;;;;;;;27.50;17.85;;;1.80;48.50;;;;;;4998284;28;20062;-72
2021/01/05 03:52:49;;;;;;;29.48;18.77;;;1.70;68.10;;;;;;4998316;28;20038;-72
2021/01/05 03:55:16;;;;;;;29.92;18.13;;;1.70;79.50;;;;;;4981646;28;20022;-71
2021/01/05 03:57:42;;;;;;;30.55;18.48;;;1.80;56.40;;;;;;4999417;28;20034;-72
2021/01/05 04:00:10;;;;;;;27.85;18.98;;;1.80;71.00;;;;;;5001302;28;20026;-73
2021/01/05 04:02:35;;;;;;;29.92;18.88;;;2.00;33.00;;;;;;4992271;28;20026;-72
2021/01/05 04:05:02;;;;;;;30.17;18.13;;;2.00;44.20;;;;;;4997820;28;20534;-72
2021/01/05 04:07:27;;;;;;;32.55;20.50;;;1.90;53.60;;;;;;4998609;28;20021;-72
2021/01/05 04:09:53;;;;;;;28.23;18.70;;;1.90;68.10;;;;;;4997166;28;20026;-71
2021/01/05 04:12:19;;;;;;;29.98;19.38;;;1.80;84.60;;;;;;4998648;28;20034;-73
2021/01/05 04:14:45;;;;;;;35.47;20.15;;;1.80;99.90;;;;;;4982419;28;20030;-75
2021/01/05 04:17:10;;;;;;;32.60;19.75;;;1.80;99.90;;;;;;4982815;28;20041;-73
2021/01/05 04:19:36;;;;;;;30.92;19.75;;;1.80;99.90;;;;;;4999598;28;20514;-73
2021/01/05 04:22:01;;;;;;;29.85;19.83;;;1.90;99.90;;;;;;4999708;28;20022;-72
2021/01/05 04:24:27;;;;;;;34.33;19.95;;;2.00;91.60;;;;;;4999021;28;20070;-73
2021/01/05 04:26:53;;;;;;;30.02;18.83;;;1.90;99.00;;;;;;4998934;28;20376;-72
2021/01/05 04:29:18;;;;;;;28.42;18.08;;;1.90;99.90;;;;;;4998859;28;20030;-73
2021/01/05 04:31:45;;;;;;;36.13;21.38;;;1.90;99.90;;;;;;4974716;28;20032;-71
2021/01/05 04:34:12;;;;;;;30.98;20.15;;;1.80;99.90;;;;;;4996753;28;20487;-72
2021/01/05 04:36:39;;;;;;;32.03;19.85;;;1.80;99.90;;;;;;4996909;28;20084;-71
2021/01/05 04:39:06;;;;;;;29.05;18.55;;;2.20;99.90;;;;;;4995888;28;20022;-70
2021/01/05 04:41:47;;;;;;;30.17;20.17;;;2.20;90.30;;;;;;4995638;28;20033;-71
2021/01/05 04:44:15;;;;;;;29.13;19.13;;;2.30;92.60;;;;;;4995623;28;20033;-72
2021/01/05 04:46:59;;;;;;;30.40;18.40;;;2.30;85.90;;;;;;4996408;28;20105;-70
2021/01/05 04:49:27;;;;;;;34.80;19.90;;;2.30;92.70;;;;;;4978448;28;20026;-71
2021/01/05 04:52:10;;;;;;;30.92;18.58;;;2.50;85.20;;;;;;4995858;28;20487;-71
2021/01/05 04:54:51;;;;;;;30.33;21.35;;;2.40;75.50;;;;;;4995813;28;20026;-70
2021/01/05 04:57:17;;;;;;;30.23;19.40;;;2.20;99.90;;;;;;4978849;28;20039;-70
2021/01/05 04:59:50;;;;;;;31.00;19.73;;;2.10;99.90;;;;;;4995098;28;20042;-70
2021/01/05 05:02:27;;;;;;;26.98;18.48;;;2.10;99.90;;;;;;4994400;28;20043;-71
2021/01/05 05:05:38;;;;;;;28.60;18.98;;;2.20;99.90;;;;;;4994917;28;20100;-70
2021/01/05 05:08:15;;;;;;;27.90;19.80;;;2.10;99.90;;;;;;4994636;28;20026;-71
2021/01/05 05:10:58;;;;;;;27.67;19.90;;;2.00;99.90;;;;;;4995518;28;20030;-71
2021/01/05 05:13:53;;;;;;;30.17;19.35;;;2.00;99.90;;;;;;4977148;28;20026;-72
2021/01/05 05:16:21;;;;;;;30.65;20.38;;;1.90;99.90;;;;;;4991378;28;20058;-71
2021/01/05 05:19:04;;;;;;;30.02;19.00;;;1.90;99.90;;;;;;4977281;28;20355;-71
2021/01/05 05:21:38;;;;;;;28.15;18.85;;;1.90;99.90;;;;;;4995033;28;20033;-71
2021/01/05 05:24:27;;;;;;;28.27;18.60;;;1.90;99.90;;;;;;4993600;28;20025;-71
2021/01/05 05:27:05;;;;;;;26.55;19.45;;;1.90;99.90;;;;;;4982211;28;20193;-71
2021/01/05 05:29:44;;;;;;;32.55;20.63;;;1.90;99.90;;;;;;4977051;28;20041;-70
2021/01/05 05:32:22;;;;;;;30.13;19.45;;;2.10;99.90;;;;;;4994270;28;20022;-71
2021/01/05 05:35:20;;;;;;;27.70;18.45;;;2.40;99.90;;;;;;4995381;28;20104;-72
2021/01/05 05:37:56;;;;;;;30.40;19.10;;;2.30;99.90;;;;;;4987655;28;20042;-72
2021/01/05 05:41:04;;;;;;;30.27;20.50;;;2.20;99.90;;;;;;4977753;28;20094;-71
2021/01/05 05:43:55;;;;;;;29.77;18.35;;;2.10;99.90;;;;;;4917422;29;20043;-71
2021/01/05 05:46:28;;;;;;;;;;;2.20;99.90;;;;;;4911337;29;20092;-71
2021/01/05 05:49:35;;;;;;;26.55;18.33;;;2.30;99.90;;;;;;4970710;28;19920;-71
2021/01/05 05:52:04;;;;;;;26.25;18.27;;;2.50;99.90;;;;;;4978645;28;20042;-71
2021/01/05 05:54:33;;;;;;;24.02;17.98;;;2.60;99.90;;;;;;4994394;28;20037;-71
2021/01/05 05:57:17;;;;;;;25.20;17.85;;;2.60;99.90;;;;;;4994191;28;20105;-70
2021/01/05 05:59:51;;;;;;;23.95;17.02;;;2.60;99.90;;;;;;4981983;28;20042;-71
2021/01/05 06:02:19;;;;;;;29.52;20.58;;;2.60;99.90;;;;;;4976467;28;20027;-72
2021/01/05 06:04:45;;;;;;;33.80;19.02;;;2.40;99.90;;;;;;4993985;28;20037;-71
2021/01/05 06:07:10;;;;;;;27.80;17.77;;;2.30;99.90;;;;;;4993789;28;20035;-71
2021/01/05 06:09:36;;;;;;;28.05;18.55;;;2.20;99.90;;;;;;4993850;28;20050;-70
2021/01/05 06:12:04;;;;;;;26.73;18.98;;;2.20;99.90;;;;;;4993659;28;20518;-71
2021/01/05 06:14:30;;;;;;;28.65;18.25;;;2.10;99.90;;;;;;4993824;28;20022;-71
2021/01/05 06:16:55;;;;;;;32.20;19.15;;;2.10;99.90;;;;;;4993854;28;20022;-72
2021/01/05 06:19:21;;;;;;;28.60;19.50;;;2.10;99.90;;;;;;4975987;28;20038;-70
2021/01/05 06:21:46;;;;;;;29.00;19.27;;;2.10;99.90;;;;;;4994016;28;20486;-71
2021/01/05 06:24:12;;;;;;;29.13;20.17;;;2.10;99.90;;;;;;4993194;28;20086;-71
2021/01/05 06:26:38;;;;;;;28.27;18.17;;;2.10;99.90;;;;;;4993623;28;20028;-70
2021/01/05 06:29:03;;;;;;;32.20;20.98;;;2.10;99.90;;;;;;4993978;28;20026;-71
2021/01/05 06:31:29;;;;;;;28.75;19.35;;;2.10;99.90;;;;;;4993775;28;20076;-70
2021/01/05 06:33:54;;;;;;;30.13;18.45;;;2.10;99.90;;;;;;4994013;28;20023;-71
2021/01/05 06:36:20;;;;;;;28.45;18.48;;;2.10;99.90;;;;;;4976193;28;20077;-72
2021/01/05 06:38:46;;;;;;;27.75;19.35;;;2.10;99.90;;;;;;4994993;28;20061;-71
2021/01/05 06:41:12;;;;;;;28.70;18.83;;;2.10;99.90;;;;;;4995395;28;20026;-71
2021/01/05 06:43:38;;;;;;;29.20;19.30;;;2.10;99.90;;;;;;4976817;28;20038;-71
2021/01/05 06:46:03;;;;;;;24.83;18.30;;;2.10;99.90;;;;;;4993676;28;20034;-69
2021/01/05 06:48:29;;;;;;;27.40;18.30;;;2.20;99.90;;;;;;4994117;28;20027;-70
2021/01/05 06:50:54;;;;;;;28.70;19.15;;;2.20;99.90;;;;;;4995408;28;20050;-72
2021/01/05 06:53:20;;;;;;;26.67;18.40;;;2.20;99.90;;;;;;4979276;28;20030;-70
2021/01/05 06:55:45;;;;;;;27.02;18.48;;;2.20;99.90;;;;;;4995136;28;20566;-70
2021/01/05 06:58:11;;;;;;;27.60;18.80;;;2.40;99.90;;;;;;4994257;28;20122;-71
2021/01/05 07:00:36;;;;;;;27.02;18.98;;;2.40;99.90;;;;;;4994011;28;21474;-71
2021/01/05 07:03:02;;;;;;;27.20;18.90;;;2.50;99.90;;;;;;4976460;28;20030;-70
2021/01/05 07:05:28;;;;;;;27.80;18.30;;;2.50;99.90;;;;;;4982626;28;20026;-71
2021/01/05 07:07:53;;;;;;;30.60;20.10;;;2.40;99.90;;;;;;4968907;28;20019;-71
2021/01/05 07:10:20;;;;;;;30.05;19.45;;;2.40;99.90;;;;;;4992976;28;20042;-71
2021/01/05 07:12:48;;;;;;;24.58;17.42;;;2.60;99.90;;;;;;4976354;28;20022;-70
2021/01/05 07:15:17;;;;;;;22.75;16.33;;;2.50;99.90;;;;;;4993434;28;20038;-71
2021/01/05 07:17:43;;;;;;;27.00;18.40;;;2.30;99.90;;;;;;4976562;28;20038;-71
2021/01/05 07:20:10;;;;;;;26.52;18.33;;;2.30;99.90;;;;;;4995512;28;20034;-70
2021/01/05 07:22:37;;;;;;;24.23;16.33;;;2.30;99.90;;;;;;4996901;28;20034;-73
2021/01/05 07:25:05;;;;;;;26.42;17.70;;;2.20;99.90;;;;;;4998707;28;20033;-71
2021/01/05 07:27:30;;;;;;;26.65;17.38;;;2.20;99.90;;;;;;4978040;28;20027;-70
2021/01/05 07:29:56;;;;;;;24.15;16.85;;;2.20;99.90;;;;;;4986649;28;20631;-72
2021/01/05 07:32:22;;;;;;;24.15;16.95;;;2.20;99.90;;;;;;4999059;28;20356;-71
2021/01/05 07:34:47;;;;;;;24.80;17.30;;;2.30;99.90;;;;;;4999303;28;20022;-70
2021/01/05 07:37:28;;;;;;;23.60;16.60;;;2.30;99.90;;;;;;4998168;28;20039;-70
2021/01/05 07:39:54;;;;;;;23.33;16.02;;;2.20;99.90;;;;;;4992903;28;20026;-71
2021/01/05 07:42:27;;;;;;;28.00;16.10;;;2.30;99.90;;;;;;4995874;28;20041;-71
2021/01/05 07:44:55;;;;;;;25.67;16.70;;;2.30;99.90;;;;;;4996020;28;20109;-71
2021/01/05 07:47:23;;;;;;;26.13;16.45;;;2.20;99.90;;;;;;4996112;28;20030;-70
2021/01/05 07:49:49;;;;;;;25.00;17.48;;;2.20;99.90;;;;;;4996590;28;20022;-71
2021/01/05 07:52:33;;;;;;;21.65;15.55;;;2.30;99.90;;;;;;4996861;28;20030;-71
2021/01/05 07:55:00;;;;;;;20.63;14.75;;;2.50;99.90;;;;;;4994750;28;20019;-70
2021/01/05 07:57:25;;;;;;;23.10;15.38;;;2.70;99.90;;;;;;4979338;28;20034;-71
2021/01/05 07:59:51;;;;;;;20.67;15.45;;;2.60;99.90;;;;;;4996630;28;20481;-71
2021/01/05 08:02:17;;;;;;;22.63;16.98;;;2.40;99.90;;;;;;4996721;28;20042;-71
2021/01/05 08:04:43;;;;;;;22.48;14.88;;;2.30;99.90;;;;;;4997111;28;20028;-72
2021/01/05 08:07:09;;;;;;;22.42;15.05;;;2.20;99.90;;;;;;4996174;28;20026;-72
2021/01/05 08:09:38;;;;;;;20.88;14.18;;;2.20;99.90;;;;;;4977952;28;20050;-71
2021/01/05 08:12:04;;;;;;;24.30;16.38;;;2.20;99.90;;;;;;4977223;28;20037;-72
2021/01/05 08:14:29;;;;;;;21.63;16.42;;;2.20;99.90;;;;;;4998906;28;20085;-71
2021/01/05 08:16:55;;;;;;;21.65;16.08;;;2.20;99.90;;;;;;4999199;28;20058;-71
2021/01/05 08:19:21;;;;;;;20.48;15.65;;;2.20;99.90;;;;;;4998039;28;20032;-72
2021/01/05 08:21:46;;;;;;;23.15;15.23;;;2.30;99.90;;;;;;4996156;28;20029;-69
2021/01/05 08:24:12;;;;;;;19.15;14.25;;;2.50;99.90;;;;;;4995810;28;20031;-71
2021/01/05 08:26:38;;;;;;;22.10;14.70;;;2.50;99.90;;;;;;4995709;28;20580;-73
2021/01/05 08:29:03;;;;;;;19.20;14.35;;;2.50;99.90;;;;;;4997120;28;20109;-70
2021/01/05 08:31:40;;;;;;;16.75;13.65;;;2.50;99.90;;;;;;4978454;28;20022;-72
2021/01/05 08:34:06;;;;;;;19.20;14.70;;;2.60;99.90;;;;;;4995192;28;20034;-71
2021/01/05 08:36:31;;;;;;;19.55;14.90;;;2.70;99.90;;;;;;4963522;28;20030;-71
2021/01/05 08:38:58;;;;;;;20.73;14.63;;;2.60;99.90;;;;;;4996346;28;20041;-70
2021/01/05 08:41:23;;;;;;;20.25;14.15;;;2.70;99.90;;;;;;4996265;28;20034;-72
2021/01/05 08:43:49;;;;;;;19.45;13.20;;;2.80;99.90;;;;;;4996172;28;20041;-72
2021/01/05 08:46:23;;;;;;;20.70;13.45;;;2.90;99.90;;;;;;5002257;28;20113;-73
2021/01/05 08:48:49;;;;;;;21.48;15.07;;;2.80;99.90;;;;;;4997313;28;20098;-72
2021/01/05 08:51:16;;;;;;;18.77;13.93;;;2.70;99.90;;;;;;4965948;28;20069;-72
2021/01/05 08:53:42;;;;;;;19.38;14.05;;;2.80;99.90;;;;;;4960550;28;20085;-70
2021/01/05 08:56:22;;;;;;;18.75;13.70;;;2.90;99.90;;;;;;4973766;28;20441;-72
2021/01/05 08:58:48;;;;;;;19.75;15.38;;;2.70;99.90;;;;;;4996609;28;20072;-71
2021/01/05 09:01:14;;;;;;;19.50;14.00;;;2.60;99.90;;;;;;4979207;28;20035;-75
2021/01/05 09:03:40;;;;;;;17.35;14.27;;;2.60;99.90;;;;;;4996368;28;20037;-71
2021/01/05 09:06:07;;;;;;;18.15;13.23;;;2.70;99.90;;;;;;4978125;28;20030;-71
2021/01/05 09:08:34;;;;;;;18.85;15.20;;;2.60;99.90;;;;;;4970761;28;20521;-71
2021/01/05 09:11:01;;;;;;;21.20;14.40;;;2.70;99.90;;;;;;4995942;28;20037;-72
2021/01/05 09:13:28;;;;;;;23.38;14.95;;;2.70;99.90;;;;;;4977817;28;20398;-72
2021/01/05 09:15:54;;;;;;;18.02;14.15;;;2.70;99.90;;;;;;4978026;28;20537;-71
2021/01/05 09:18:20;;;;;;;19.27;14.15;;;2.80;99.90;;;;;;4994704;28;20045;-72
2021/01/05 09:20:53;;;;;;;20.55;14.10;;;2.80;99.90;;;;;;4995300;28;20022;-70
2021/01/05 09:23:22;;;;;;;20.65;13.88;;;2.90;99.90;;;;;;4995171;28;20030;-70
2021/01/05 09:25:55;;;;;;;24.48;14.93;;;3.00;99.90;;;;;;4995632;28;20102;-71
2021/01/05 09:28:24;;;;;;;20.92;14.27;;;3.10;99.90;;;;;;4990656;28;20027;-70
2021/01/05 09:30:50;;;;;;;22.35;15.80;;;3.10;99.90;;;;;;4997439;28;20029;-71
2021/01/05 09:33:18;;;;;;;20.63;14.73;;;3.10;99.90;;;;;;4998973;28;20058;-72
2021/01/05 09:35:43;;;;;;;21.35;14.32;;;3.10;99.90;;;;;;5000037;28;20022;-72
2021/01/05 09:38:09;;;;;;;23.13;15.10;;;3.20;99.90;;;;;;4998728;28;20089;-71
2021/01/05 09:40:36;;;;;;;20.92;14.80;;;3.10;99.90;;;;;;4998258;28;20057;-71
2021/01/05 09:43:07;;;;;;;20.92;15.88;;;3.00;99.90;;;;;;4999983;28;20030;-72
2021/01/05 09:45:33;;;;;;;;;;;2.90;99.90;;;;;;5000533;28;20030;-70
2021/01/05 09:48:07;;;;;;;23.20;14.50;;;2.90;99.90;;;;;;5013600;28;19913;-73
2021/01/05 09:50:34;;;;;;;21.48;14.65;;;3.10;99.90;;;;;;5000968;28;20809;-71
2021/01/05 09:53:00;;;;;;;20.88;15.07;;;3.00;99.90;;;;;;5018513;28;20020;-68
2021/01/05 09:55:26;;;;;;;20.23;15.27;;;3.10;99.90;;;;;;5001662;28;20018;-69
2021/01/05 09:57:53;;;;;;;20.52;16.52;;;3.00;99.90;;;;;;4998379;28;20021;-69
2021/01/05 10:00:20;;;;;;;21.50;15.98;;;2.90;99.90;;;;;;5017520;28;20026;-69
2021/01/05 10:02:45;;;;;;;17.63;13.70;;;3.00;99.90;;;;;;5018707;28;20023;-69
2021/01/05 10:05:11;;;;;;;21.48;15.32;;;3.00;99.90;;;;;;5018839;28;20057;-71
2021/01/05 10:07:37;;;;;;;19.45;15.40;;;3.10;99.90;;;;;;4998187;28;20045;-70
2021/01/05 10:10:05;;;;;;;21.02;16.08;;;3.00;99.90;;;;;;5017108;28;20039;-70
2021/01/05 10:12:30;;;;;;;19.00;14.95;;;2.90;99.90;;;;;;5018056;28;20074;-71
2021/01/05 10:14:56;;;;;;;25.98;16.60;;;2.90;99.90;;;;;;5018036;28;20029;-70
2021/01/05 10:17:21;;;;;;;24.70;15.32;;;2.80;99.90;;;;;;5018127;28;20026;-71
2021/01/05 10:19:47;;;;;;;23.67;17.48;;;2.90;99.90;;;;;;5018358;28;20027;-70
2021/01/05 10:22:12;;;;;;;20.48;14.55;;;2.90;99.90;;;;;;5017414;28;20041;-71
2021/01/05 10:24:38;;;;;;;23.42;15.70;;;3.20;99.90;;;;;;5009117;28;20026;-74
2021/01/05 10:27:04;;;;;;;18.65;14.15;;;3.20;99.90;;;;;;5012232;28;20105;-73
2021/01/05 10:29:29;;;;;;;18.25;14.70;;;3.10;99.90;;;;;;5016999;28;20014;-72
2021/01/05 10:31:55;;;;;;;21.17;16.27;;;3.10;99.90;;;;;;5018742;28;20010;-75
2021/01/05 10:34:23;;;;;;;22.25;16.17;;;2.80;99.90;;;;;;5018463;28;20023;-74
2021/01/05 10:36:53;;;;;;;22.50;16.10;;;2.80;99.90;;;;;;5018282;28;20026;-73
2021/01/05 10:39:19;;;;;;;22.63;17.77;;;2.90;99.90;;;;;;5018366;28;20033;-74
2021/01/05 10:41:45;;;;;;;21.60;15.98;;;2.90;99.90;;;;;;5018541;28;20269;-73
2021/01/05 10:44:13;;;;;;;25.02;17.73;;;2.90;99.90;;;;;;5018411;28;20098;-74
2021/01/05 10:46:38;;;;;;;26.13;17.65;;;2.90;99.90;;;;;;5018458;28;20074;-74
2021/01/05 10:49:04;;;;;;;22.92;16.70;;;2.90;99.90;;;;;;5018120;28;20026;-73
2021/01/05 10:51:30;;;;;;;21.08;16.52;;;2.90;99.90;;;;;;5018500;28;20015;-74
2021/01/05 10:53:56;;;;;;;22.00;16.10;;;2.90;99.90;;;;;;5001492;28;20011;-74
2021/01/05 10:56:22;;;;;;;20.38;15.57;;;3.20;99.90;;;;;;4998518;28;20023;-73
2021/01/05 10:58:47;;;;;;;21.00;14.93;;;3.50;99.90;;;;;;4998561;28;20031;-73
2021/01/05 11:01:13;;;;;;;20.95;16.20;;;3.50;80.20;;;;;;5008500;28;20034;-77
2021/01/05 11:03:39;;;;;;;20.92;15.20;;;3.40;95.20;;;;;;5001067;28;20015;-75
2021/01/05 11:06:06;;;;;;;21.80;15.95;;;3.40;99.90;;;;;;5017869;28;20027;-73
2021/01/05 11:08:32;;;;;;;20.88;16.60;;;3.30;99.90;;;;;;5017506;28;20027;-73
2021/01/05 11:11:00;;;;;;;21.83;17.23;;;3.30;99.90;;;;;;5016784;28;20042;-74
2021/01/05 11:13:28;;;;;;;20.42;16.48;;;3.50;95.00;;;;;;5000386;28;20045;-72
2021/01/05 11:15:54;;;;;;;20.88;16.40;;;3.50;65.70;;;;;;5016595;28;20045;-74
2021/01/05 11:18:19;;;;;;;20.83;15.45;;;3.70;67.60;;;;;;5015765;28;20030;-73
2021/01/05 11:20:45;;;;;;;20.27;15.35;;;3.60;75.60;;;;;;5013640;28;20033;-72
2021/01/05 11:23:11;;;;;;;23.80;15.93;;;3.50;82.20;;;;;;4987446;28;20618;-71
2021/01/05 11:25:37;;;;;;;25.63;18.13;;;3.60;75.10;;;;;;4978250;28;20027;-72
2021/01/05 11:28:04;;;;;;;21.80;15.65;;;3.50;93.00;;;;;;4980020;28;20027;-74
2021/01/05 11:30:30;;;;;;;17.60;13.65;;;3.60;67.70;;;;;;4960787;28;20034;-73
2021/01/05 11:32:56;;;;;;;23.80;14.98;;;3.50;91.50;;;;;;4977794;28;20031;-73
2021/01/05 11:35:22;;;;;;;23.88;16.05;;;3.50;86.70;;;;;;4976933;28;20054;-72
2021/01/05 11:37:48;;;;;;;20.30;14.95;;;3.50;99.90;;;;;;4988059;28;20109;-72
2021/01/05 11:40:15;;;;;;;25.13;15.88;;;3.60;95.80;;;;;;4996870;28;20026;-72
2021/01/05 11:42:40;;;;;;;24.88;17.23;;;3.90;99.90;;;;;;4996316;28;20027;-72
2021/01/05 11:45:08;;;;;;;21.08;15.52;;;3.90;97.70;;;;;;4993046;28;20050;-71
2021/01/05 11:47:34;;;;;;;23.77;16.80;;;3.60;92.90;;;;;;4998235;28;20037;-72
2021/01/05 11:49:59;;;;;;;25.75;17.83;;;3.50;99.90;;;;;;4977344;28;20027;-72
2021/01/05 11:52:25;;;;;;;22.27;16.95;;;3.50;97.60;;;;;;4996263;28;20076;-71
2021/01/05 11:54:51;;;;;;;22.60;15.32;;;3.50;88.20;;;;;;4998322;28;20088;-72
2021/01/05 11:57:20;;;;;;;21.27;16.23;;;3.60;90.20;;;;;;4998237;28;20029;-72
2021/01/05 11:59:46;;;;;;;25.58;17.77;;;3.70;60.60;;;;;;5000982;28;20034;-72
2021/01/05 12:02:12;;;;;;;23.65;15.95;;;3.70;75.40;;;;;;4993406;28;20019;-72
2021/01/05 12:04:39;;;;;;;24.88;16.83;;;3.60;91.60;;;;;;4996162;28;20037;-73
2021/01/05 12:07:05;;;;;;;23.33;16.75;;;3.50;66.70;;;;;;4984852;28;20091;-72
2021/01/05 12:09:31;;;;;;;22.50;16.35;;;3.50;91.10;;;;;;4981943;28;20031;-72
2021/01/05 12:12:02;;;;;;;22.85;16.73;;;3.30;98.70;;;;;;5000732;28;20074;-73
2021/01/05 12:14:28;;;;;;;25.35;18.50;;;3.30;99.90;;;;;;5001425;28;20038;-74
2021/01/05 12:16:58;;;;;;;22.15;15.88;;;3.30;99.90;;;;;;5001074;28;20031;-73
2021/01/05 12:19:26;;;;;;;24.60;16.52;;;3.50;99.90;;;;;;5001110;28;20039;-73
2021/01/05 12:21:56;;;;;;;20.50;15.25;;;3.60;57.80;;;;;;4984117;28;20050;-73
2021/01/05 12:24:24;;;;;;;23.45;15.75;;;3.60;95.50;;;;;;5000748;28;20061;-72
2021/01/05 12:26:51;;;;;;;20.98;15.45;;;3.40;99.90;;;;;;5004244;28;20077;-73
2021/01/05 12:29:22;;;;;;;20.92;15.38;;;3.40;99.90;;;;;;5003077;28;20057;-73
2021/01/05 12:31:52;;;;;;;22.80;15.98;;;3.60;64.60;;;;;;5019613;28;20057;-75
2021/01/05 12:34:21;;;;;;;24.33;18.43;;;3.60;91.60;;;;;;5020295;28;20022;-72
2021/01/05 12:36:47;;;;;;;23.52;16.52;;;3.50;99.90;;;;;;5020315;28;20070;-73
2021/01/05 12:39:29;;;;;;;20.95;15.60;;;3.60;93.30;;;;;;5019740;28;20038;-74
2021/01/05 12:41:56;;;;;;;24.27;16.70;;;3.50;99.90;;;;;;5020612;28;20080;-73
2021/01/05 12:44:24;;;;;;;23.58;15.82;;;3.60;93.10;;;;;;5020270;28;20034;-74
2021/01/05 12:46:51;;;;;;;23.83;17.02;;;3.40;99.90;;;;;;5019636;28;20022;-74
2021/01/05 12:49:18;;;;;;;24.80;16.00;;;3.50;99.90;;;;;;5020366;28;20026;-74
2021/01/05 12:51:46;;;;;;;23.52;15.50;;;3.60;74.80;;;;;;5020655;28;20061;-74
2021/01/05 12:54:16;;;;;;;23.67;16.45;;;3.40;99.90;;;;;;5020226;28;20041;-74